sensor_id;sensor_type;location;lat;lon;timestamp;pressure;altitude;pressure_sealevel;temperature;humidity
39443;BME280;25147;52.142;9.960;2023-05-07T00:02:23;100980.97;;;9.91;100.00
39443;BME280;25147;52.142;9.960;2023-05-07T00:04:52;100996.63;;;9.97;100.00
39443;BME280;25147;52.142;9.960;2023-05-07T00:07:19;100988.81;;;9.94;100.00
39443;BME280;25147;52.142;9.960;2023-05-07T00:09:46;100959.25;;;9.70;100.00
39443;BME280;25147;52.142;9.960;2023-05-07T00:12:13;100988.84;;;9.89;100.00
39443;BME280;25147;52.142;9.960;2023-05-07T00:14:40;100934.88;;;9.60;100.00
39443;BME280;25147;52.142;9.960;2023-05-07T00:17:07;100993.16;;;9.96;100.00
39443;BME280;25147;52.142;9.960;2023-05-07T00:19:33;100988.78;;;9.97;100.00
39443;BME280;25147;52.142;9.960;2023-05-07T00:22:01;100996.59;;;10.04;100.00
39443;BME280;25147;52.142;9.960;2023-05-07T00:24:28;100968.78;;;9.88;100.00
39443;BME280;25147;52.142;9.960;2023-05-07T00:26:55;100982.72;;;9.92;100.00
39443;BME280;25147;52.142;9.960;2023-05-07T00:29:23;100947.91;;;9.73;100.00
39443;BME280;25147;52.142;9.960;2023-05-07T00:31:50;100942.72;;;9.68;100.00
39443;BME280;25147;52.142;9.960;2023-05-07T00:34:19;100958.41;;;9.71;100.00
39443;BME280;25147;52.142;9.960;2023-05-07T00:36:47;100960.97;;;9.73;100.00
39443;BME280;25147;52.142;9.960;2023-05-07T00:39:16;100912.31;;;9.42;100.00
39443;BME280;25147;52.142;9.960;2023-05-07T00:41:42;100960.09;;;9.77;100.00
39443;BME280;25147;52.142;9.960;2023-05-07T00:44:09;100934.03;;;9.61;100.00
39443;BME280;25147;52.142;9.960;2023-05-07T00:46:36;100958.38;;;9.73;100.00
39443;BME280;25147;52.142;9.960;2023-05-07T00:49:02;100941.00;;;9.59;100.00
39443;BME280;25147;52.142;9.960;2023-05-07T00:51:30;100931.44;;;9.54;100.00
39443;BME280;25147;52.142;9.960;2023-05-07T00:53:57;100907.94;;;9.46;100.00
39443;BME280;25147;52.142;9.960;2023-05-07T00:56:26;100957.47;;;9.81;100.00
39443;BME280;25147;52.142;9.960;2023-05-07T00:58:53;100967.03;;;9.82;100.00
39443;BME280;25147;52.142;9.960;2023-05-07T01:01:21;100974.03;;;9.83;100.00
39443;BME280;25147;52.142;9.960;2023-05-07T01:03:48;100907.06;;;9.49;100.00
39443;BME280;25147;52.142;9.960;2023-05-07T01:06:15;100985.34;;;9.84;100.00
39443;BME280;25147;52.142;9.960;2023-05-07T01:08:43;100949.72;;;9.60;100.00
39443;BME280;25147;52.142;9.960;2023-05-07T01:11:10;100897.56;;;9.21;100.00
39443;BME280;25147;52.142;9.960;2023-05-07T01:13:40;100984.53;;;9.71;100.00
39443;BME280;25147;52.142;9.960;2023-05-07T01:16:10;100946.28;;;9.49;100.00
39443;BME280;25147;52.142;9.960;2023-05-07T01:18:37;100947.13;;;9.49;100.00
39443;BME280;25147;52.142;9.960;2023-05-07T01:21:04;100984.53;;;9.71;100.00
39443;BME280;25147;52.142;9.960;2023-05-07T01:23:33;100978.44;;;9.66;100.00
39443;BME280;25147;52.142;9.960;2023-05-07T01:26:04;100986.31;;;9.63;100.00
39443;BME280;25147;52.142;9.960;2023-05-07T01:28:31;100963.72;;;9.45;100.00
39443;BME280;25147;52.142;9.960;2023-05-07T01:31:01;100991.53;;;9.61;100.00
39443;BME280;25147;52.142;9.960;2023-05-07T01:33:34;100975.91;;;9.51;100.00
39443;BME280;25147;52.142;9.960;2023-05-07T01:36:04;100961.94;;;9.52;100.00
39443;BME280;25147;52.142;9.960;2023-05-07T01:38:36;100962.81;;;9.48;100.00
39443;BME280;25147;52.142;9.960;2023-05-07T01:41:06;100941.09;;;9.36;100.00
39443;BME280;25147;52.142;9.960;2023-05-07T01:43:33;100972.38;;;9.58;100.00
39443;BME280;25147;52.142;9.960;2023-05-07T01:46:01;100974.13;;;9.54;100.00
39443;BME280;25147;52.142;9.960;2023-05-07T01:48:29;100970.69;;;9.44;100.00
39443;BME280;25147;52.142;9.960;2023-05-07T01:50:56;100992.44;;;9.53;100.00
39443;BME280;25147;52.142;9.960;2023-05-07T01:53:23;100959.38;;;9.33;100.00
39443;BME280;25147;52.142;9.960;2023-05-07T01:55:51;100964.59;;;9.35;100.00
39443;BME280;25147;52.142;9.960;2023-05-07T01:58:18;100898.50;;;8.96;100.00
39443;BME280;25147;52.142;9.960;2023-05-07T02:00:44;100859.41;;;8.71;100.00
39443;BME280;25147;52.142;9.960;2023-05-07T02:03:11;100961.13;;;9.33;100.00
39443;BME280;25147;52.142;9.960;2023-05-07T02:05:38;100971.53;;;9.43;100.00
39443;BME280;25147;52.142;9.960;2023-05-07T02:08:04;100979.38;;;9.51;100.00
39443;BME280;25147;52.142;9.960;2023-05-07T02:10:31;100986.34;;;9.49;100.00
39443;BME280;25147;52.142;9.960;2023-05-07T02:12:59;100957.66;;;9.32;100.00
39443;BME280;25147;52.142;9.960;2023-05-07T02:15:27;100995.03;;;9.48;100.00
39443;BME280;25147;52.142;9.960;2023-05-07T02:18:01;100990.66;;;9.56;100.00
39443;BME280;25147;52.142;9.960;2023-05-07T02:20:28;101001.13;;;9.58;100.00
39443;BME280;25147;52.142;9.960;2023-05-07T02:22:55;100997.66;;;9.57;100.00
39443;BME280;25147;52.142;9.960;2023-05-07T02:25:21;100969.81;;;9.42;100.00
39443;BME280;25147;52.142;9.960;2023-05-07T02:27:48;100959.41;;;9.29;100.00
39443;BME280;25147;52.142;9.960;2023-05-07T02:30:19;101012.47;;;9.57;100.00
39443;BME280;25147;52.142;9.960;2023-05-07T02:32:46;101016.81;;;9.52;100.00
39443;BME280;25147;52.142;9.960;2023-05-07T02:35:13;101018.56;;;9.59;100.00
39443;BME280;25147;52.142;9.960;2023-05-07T02:37:40;100950.69;;;9.16;100.00
39443;BME280;25147;52.142;9.960;2023-05-07T02:40:07;101020.28;;;9.58;100.00
39443;BME280;25147;52.142;9.960;2023-05-07T02:42:34;101013.34;;;9.51;100.00
39443;BME280;25147;52.142;9.960;2023-05-07T02:45:01;101023.78;;;9.62;100.00
39443;BME280;25147;52.142;9.960;2023-05-07T02:47:29;100998.56;;;9.49;100.00
39443;BME280;25147;52.142;9.960;2023-05-07T02:49:56;101010.72;;;9.54;100.00
39443;BME280;25147;52.142;9.960;2023-05-07T02:52:22;101004.63;;;9.52;100.00
39443;BME280;25147;52.142;9.960;2023-05-07T02:54:49;101005.50;;;9.56;100.00
39443;BME280;25147;52.142;9.960;2023-05-07T02:57:16;101011.56;;;9.64;100.00
39443;BME280;25147;52.142;9.960;2023-05-07T02:59:42;100989.81;;;9.50;100.00
39443;BME280;25147;52.142;9.960;2023-05-07T03:02:09;100998.56;;;9.49;100.00
39443;BME280;25147;52.142;9.960;2023-05-07T03:04:38;101009.84;;;9.63;100.00
39443;BME280;25147;52.142;9.960;2023-05-07T03:07:05;101008.94;;;9.62;100.00
39443;BME280;25147;52.142;9.960;2023-05-07T03:09:31;101004.59;;;9.61;100.00
39443;BME280;25147;52.142;9.960;2023-05-07T03:11:58;100987.25;;;9.40;100.00
39443;BME280;25147;52.142;9.960;2023-05-07T03:14:25;100982.00;;;9.39;100.00
39443;BME280;25147;52.142;9.960;2023-05-07T03:16:51;100988.09;;;9.41;100.00
39443;BME280;25147;52.142;9.960;2023-05-07T03:19:18;101013.34;;;9.50;100.00
39443;BME280;25147;52.142;9.960;2023-05-07T03:21:47;100932.44;;;9.05;100.00
39443;BME280;25147;52.142;9.960;2023-05-07T03:24:13;101002.00;;;9.54;100.00
39443;BME280;25147;52.142;9.960;2023-05-07T03:26:40;101002.00;;;9.54;100.00
39443;BME280;25147;52.142;9.960;2023-05-07T03:29:07;100988.94;;;9.46;100.00
39443;BME280;25147;52.142;9.960;2023-05-07T03:31:34;101002.91;;;9.51;100.00
39443;BME280;25147;52.142;9.960;2023-05-07T03:34:00;100990.72;;;9.47;100.00
39443;BME280;25147;52.142;9.960;2023-05-07T03:36:27;100999.44;;;9.44;100.00
39443;BME280;25147;52.142;9.960;2023-05-07T03:38:55;100924.59;;;9.03;100.00
39443;BME280;25147;52.142;9.960;2023-05-07T03:41:22;100995.94;;;9.44;100.00
39443;BME280;25147;52.142;9.960;2023-05-07T03:43:49;100991.56;;;9.46;100.00
39443;BME280;25147;52.142;9.960;2023-05-07T03:46:15;100987.22;;;9.45;100.00
39443;BME280;25147;52.142;9.960;2023-05-07T03:48:44;100989.84;;;9.47;100.00
39443;BME280;25147;52.142;9.960;2023-05-07T03:51:11;100946.34;;;9.16;100.00
39443;BME280;25147;52.142;9.960;2023-05-07T03:53:38;100979.41;;;9.34;100.00
39443;BME280;25147;52.142;9.960;2023-05-07T03:56:06;100989.84;;;9.47;100.00
39443;BME280;25147;52.142;9.960;2023-05-07T03:58:32;100965.50;;;9.31;100.00
39443;BME280;25147;52.142;9.960;2023-05-07T04:00:59;100986.34;;;9.46;100.00
39443;BME280;25147;52.142;9.960;2023-05-07T04:03:26;100949.84;;;9.20;100.00
39443;BME280;25147;52.142;9.960;2023-05-07T04:05:53;100999.44;;;9.41;100.00
39443;BME280;25147;52.142;9.960;2023-05-07T04:08:20;100989.88;;;9.33;100.00
39443;BME280;25147;52.142;9.960;2023-05-07T04:10:46;100976.81;;;9.23;100.00
39443;BME280;25147;52.142;9.960;2023-05-07T04:13:14;100955.06;;;9.08;100.00
39443;BME280;25147;52.142;9.960;2023-05-07T04:15:41;100966.38;;;9.13;100.00
39443;BME280;25147;52.142;9.960;2023-05-07T04:18:07;100978.56;;;9.23;100.00
39443;BME280;25147;52.142;9.960;2023-05-07T04:20:34;101024.69;;;9.47;100.00
39443;BME280;25147;52.142;9.960;2023-05-07T04:23:02;101019.44;;;9.52;100.00
39443;BME280;25147;52.142;9.960;2023-05-07T04:25:29;101021.16;;;9.54;100.00
39443;BME280;25147;52.142;9.960;2023-05-07T04:27:56;100968.09;;;9.23;100.00
39443;BME280;25147;52.142;9.960;2023-05-07T04:30:24;100982.88;;;9.33;100.00
39443;BME280;25147;52.142;9.960;2023-05-07T04:32:51;101015.94;;;9.56;100.00
39443;BME280;25147;52.142;9.960;2023-05-07T04:35:18;100998.56;;;9.35;100.00
39443;BME280;25147;52.142;9.960;2023-05-07T04:37:45;101029.03;;;9.51;100.00
39443;BME280;25147;52.142;9.960;2023-05-07T04:40:11;101040.34;;;9.50;100.00
39443;BME280;25147;52.142;9.960;2023-05-07T04:42:38;101034.25;;;9.51;100.00
39443;BME280;25147;52.142;9.960;2023-05-07T04:45:05;101009.03;;;9.36;100.00
39443;BME280;25147;52.142;9.960;2023-05-07T04:47:35;101022.06;;;9.44;100.00
39443;BME280;25147;52.142;9.960;2023-05-07T04:50:02;100956.81;;;9.10;100.00
39443;BME280;25147;52.142;9.960;2023-05-07T04:52:29;101015.97;;;9.37;100.00
39443;BME280;25147;52.142;9.960;2023-05-07T04:54:55;101042.09;;;9.56;100.00
39443;BME280;25147;52.142;9.960;2023-05-07T04:57:22;101042.94;;;9.59;100.00
39443;BME280;25147;52.142;9.960;2023-05-07T04:59:49;101034.28;;;9.45;100.00
39443;BME280;25147;52.142;9.960;2023-05-07T05:02:15;101040.34;;;9.58;100.00
39443;BME280;25147;52.142;9.960;2023-05-07T05:04:43;101054.25;;;9.66;100.00
39443;BME280;25147;52.142;9.960;2023-05-07T05:07:10;101062.97;;;9.67;100.00
39443;BME280;25147;52.142;9.960;2023-05-07T05:09:37;101050.81;;;9.55;100.00
39443;BME280;25147;52.142;9.960;2023-05-07T05:12:04;101037.75;;;9.47;100.00
39443;BME280;25147;52.142;9.960;2023-05-07T05:14:32;101019.47;;;9.38;100.00
39443;BME280;25147;52.142;9.960;2023-05-07T05:17:01;101046.47;;;9.49;100.00
39443;BME280;25147;52.142;9.960;2023-05-07T05:19:28;101050.81;;;9.47;100.00
39443;BME280;25147;52.142;9.960;2023-05-07T05:21:56;101076.06;;;9.62;100.00
39443;BME280;25147;52.142;9.960;2023-05-07T05:24:23;101050.81;;;9.53;100.00
39443;BME280;25147;52.142;9.960;2023-05-07T05:26:49;101062.97;;;9.67;100.00
39443;BME280;25147;52.142;9.960;2023-05-07T05:29:16;101075.16;;;9.71;100.00
39443;BME280;25147;52.142;9.960;2023-05-07T05:31:43;101053.38;;;9.64;100.00
39443;BME280;25147;52.142;9.960;2023-05-07T05:34:18;101061.25;;;9.67;100.00
39443;BME280;25147;52.142;9.960;2023-05-07T05:36:46;101083.91;;;9.71;100.00
39443;BME280;25147;52.142;9.960;2023-05-07T05:39:14;100989.88;;;9.23;100.00
39443;BME280;25147;52.142;9.960;2023-05-07T05:41:41;101024.72;;;9.36;100.00
39443;BME280;25147;52.142;9.960;2023-05-07T05:44:08;101082.13;;;9.70;100.00
39443;BME280;25147;52.142;9.960;2023-05-07T05:46:34;101079.53;;;9.70;100.00
39443;BME280;25147;52.142;9.960;2023-05-07T05:49:01;101061.25;;;9.58;100.00
39443;BME280;25147;52.142;9.960;2023-05-07T05:51:28;101100.44;;;9.70;100.00
39443;BME280;25147;52.142;9.960;2023-05-07T05:53:55;101086.50;;;9.67;100.00
39443;BME280;25147;52.142;9.960;2023-05-07T05:56:23;101049.06;;;9.46;100.00
39443;BME280;25147;52.142;9.960;2023-05-07T05:58:50;101021.22;;;9.34;100.00
39443;BME280;25147;52.142;9.960;2023-05-07T06:01:17;101080.41;;;9.69;100.00
39443;BME280;25147;52.142;9.960;2023-05-07T06:03:47;101045.56;;;9.56;99.92
39443;BME280;25147;52.142;9.960;2023-05-07T06:06:13;101072.56;;;9.74;99.38
39443;BME280;25147;52.142;9.960;2023-05-07T06:08:41;101040.31;;;9.56;99.44
39443;BME280;25147;52.142;9.960;2023-05-07T06:11:08;101003.78;;;9.38;99.53
39443;BME280;25147;52.142;9.960;2023-05-07T06:13:36;101082.13;;;9.86;98.85
39443;BME280;25147;52.142;9.960;2023-05-07T06:16:03;101059.44;;;9.83;98.54
39443;BME280;25147;52.142;9.960;2023-05-07T06:18:30;101069.03;;;9.92;97.98
39443;BME280;25147;52.142;9.960;2023-05-07T06:20:57;101055.97;;;9.82;97.09
39443;BME280;25147;52.142;9.960;2023-05-07T06:23:23;101081.16;;;10.05;97.24
39443;BME280;25147;52.142;9.960;2023-05-07T06:25:50;101001.97;;;9.64;96.28
39443;BME280;25147;52.142;9.960;2023-05-07T06:28:19;101063.78;;;9.99;96.26
39443;BME280;25147;52.142;9.960;2023-05-07T06:30:48;101085.50;;;10.15;95.52
39443;BME280;25147;52.142;9.960;2023-05-07T06:33:15;101078.53;;;10.11;95.80
39443;BME280;25147;52.142;9.960;2023-05-07T06:35:42;101088.13;;;10.18;95.64
39443;BME280;25147;52.142;9.960;2023-05-07T06:38:09;101099.44;;;10.22;95.40
39443;BME280;25147;52.142;9.960;2023-05-07T06:40:36;101094.19;;;10.27;95.35
39443;BME280;25147;52.142;9.960;2023-05-07T06:43:03;101081.97;;;10.25;94.79
39443;BME280;25147;52.142;9.960;2023-05-07T06:45:31;101091.50;;;10.43;94.54
39443;BME280;25147;52.142;9.960;2023-05-07T06:48:03;101080.19;;;10.40;93.56
39443;BME280;25147;52.142;9.960;2023-05-07T06:50:31;101098.44;;;10.57;92.78
39443;BME280;25147;52.142;9.960;2023-05-07T06:52:58;101086.22;;;10.56;92.50
39443;BME280;25147;52.142;9.960;2023-05-07T06:55:25;101104.50;;;10.67;92.09
39443;BME280;25147;52.142;9.960;2023-05-07T06:57:51;101084.47;;;10.62;91.66
39443;BME280;25147;52.142;9.960;2023-05-07T07:00:19;101039.16;;;10.45;90.59
39443;BME280;25147;52.142;9.960;2023-05-07T07:02:46;101072.97;;;10.82;90.32
39443;BME280;25147;52.142;9.960;2023-05-07T07:05:14;101072.03;;;10.92;89.52
39443;BME280;25147;52.142;9.960;2023-05-07T07:07:41;101040.63;;;10.86;88.21
39443;BME280;25147;52.142;9.960;2023-05-07T07:10:08;101100.63;;;11.23;88.04
39443;BME280;25147;52.142;9.960;2023-05-07T07:12:35;101104.06;;;11.30;87.47
39443;BME280;25147;52.142;9.960;2023-05-07T07:15:02;101034.50;;;10.92;87.00
39443;BME280;25147;52.142;9.960;2023-05-07T07:17:29;101070.91;;;11.24;86.24
39443;BME280;25147;52.142;9.960;2023-05-07T07:19:56;101102.25;;;11.38;85.70
39443;BME280;25147;52.142;9.960;2023-05-07T07:22:25;101092.69;;;11.34;85.60
39443;BME280;25147;52.142;9.960;2023-05-07T07:24:51;101077.75;;;11.42;85.22
39443;BME280;25147;52.142;9.960;2023-05-07T07:27:18;101098.63;;;11.54;84.75
39443;BME280;25147;52.142;9.960;2023-05-07T07:29:45;101105.59;;;11.54;85.08
39443;BME280;25147;52.142;9.960;2023-05-07T07:32:12;101090.75;;;11.53;84.83
39443;BME280;25147;52.142;9.960;2023-05-07T07:34:38;101086.34;;;11.56;83.53
39443;BME280;25147;52.142;9.960;2023-05-07T07:37:05;101108.94;;;11.73;83.88
39443;BME280;25147;52.142;9.960;2023-05-07T07:39:33;101026.31;;;11.30;83.74
39443;BME280;25147;52.142;9.960;2023-05-07T07:42:03;101067.16;;;11.51;83.06
39443;BME280;25147;52.142;9.960;2023-05-07T07:44:37;101051.50;;;11.45;83.25
39443;BME280;25147;52.142;9.960;2023-05-07T07:47:05;101100.16;;;11.72;82.94
39443;BME280;25147;52.142;9.960;2023-05-07T07:49:32;100962.81;;;10.99;81.98
39443;BME280;25147;52.142;9.960;2023-05-07T07:51:59;101094.09;;;11.69;82.59
39443;BME280;25147;52.142;9.960;2023-05-07T07:54:26;101099.28;;;11.75;82.38
39443;BME280;25147;52.142;9.960;2023-05-07T07:56:54;101082.63;;;11.79;82.62
39443;BME280;25147;52.142;9.960;2023-05-07T07:59:21;101106.19;;;11.87;81.95
39443;BME280;25147;52.142;9.960;2023-05-07T08:01:48;101112.25;;;11.95;81.51
39443;BME280;25147;52.142;9.960;2023-05-07T08:04:15;101120.13;;;11.92;82.29
39443;BME280;25147;52.142;9.960;2023-05-07T08:06:45;101085.28;;;11.74;81.77
39443;BME280;25147;52.142;9.960;2023-05-07T08:09:14;101124.50;;;11.93;82.13
39443;BME280;25147;52.142;9.960;2023-05-07T08:11:40;101123.63;;;11.92;82.35
39443;BME280;25147;52.142;9.960;2023-05-07T08:14:08;101131.53;;;11.86;81.96
39443;BME280;25147;52.142;9.960;2023-05-07T08:16:35;100927.31;;;10.66;81.95
39443;BME280;25147;52.142;9.960;2023-05-07T08:19:02;101108.13;;;11.64;81.86
39443;BME280;25147;52.142;9.960;2023-05-07T08:21:32;100857.00;;;10.16;81.96
39443;BME280;25147;52.142;9.960;2023-05-07T08:23:59;101144.81;;;11.66;82.73
39443;BME280;25147;52.142;9.960;2023-05-07T08:26:26;100902.25;;;10.34;82.30
39443;BME280;25147;52.142;9.960;2023-05-07T08:28:53;101087.34;;;11.41;82.81
39443;BME280;25147;52.142;9.960;2023-05-07T08:31:21;101091.63;;;11.55;83.16
39443;BME280;25147;52.142;9.960;2023-05-07T08:33:48;101108.94;;;11.73;82.58
39443;BME280;25147;52.142;9.960;2023-05-07T08:36:15;101135.00;;;11.88;82.63
39443;BME280;25147;52.142;9.960;2023-05-07T08:38:41;101102.84;;;11.69;81.67
39443;BME280;25147;52.142;9.960;2023-05-07T08:41:11;101139.28;;;12.00;82.15
39443;BME280;25147;52.142;9.960;2023-05-07T08:43:40;101068.72;;;11.71;82.02
39443;BME280;25147;52.142;9.960;2023-05-07T08:46:09;101088.63;;;11.93;81.37
39443;BME280;25147;52.142;9.960;2023-05-07T08:48:38;101130.34;;;12.16;79.89
39443;BME280;25147;52.142;9.960;2023-05-07T08:51:05;100926.06;;;11.07;79.70
39443;BME280;25147;52.142;9.960;2023-05-07T08:53:33;101004.09;;;11.62;79.26
39443;BME280;25147;52.142;9.960;2023-05-07T08:56:02;100797.59;;;10.32;79.35
39443;BME280;25147;52.142;9.960;2023-05-07T08:58:29;100761.91;;;10.17;78.42
39443;BME280;25147;52.142;9.960;2023-05-07T09:00:56;101107.00;;;11.93;78.90
39443;BME280;25147;52.142;9.960;2023-05-07T09:03:23;100996.41;;;11.48;78.81
39443;BME280;25147;52.142;9.960;2023-05-07T09:05:53;100852.47;;;10.43;78.92
39443;BME280;25147;52.142;9.960;2023-05-07T09:08:24;100913.06;;;10.94;79.61
39443;BME280;25147;52.142;9.960;2023-05-07T09:10:54;100893.88;;;10.94;79.90
39443;BME280;25147;52.142;9.960;2023-05-07T09:13:21;101132.75;;;12.36;79.81
39443;BME280;25147;52.142;9.960;2023-05-07T09:15:47;101114.47;;;12.27;79.63
39443;BME280;25147;52.142;9.960;2023-05-07T09:18:14;101114.59;;;12.18;79.39
39443;BME280;25147;52.142;9.960;2023-05-07T09:20:44;101116.16;;;12.33;79.07
39443;BME280;25147;52.142;9.960;2023-05-07T09:23:12;101100.41;;;12.34;79.29
39443;BME280;25147;52.142;9.960;2023-05-07T09:25:39;101117.75;;;12.46;78.95
39443;BME280;25147;52.142;9.960;2023-05-07T09:28:05;101126.41;;;12.53;78.47
39443;BME280;25147;52.142;9.960;2023-05-07T09:30:33;101116.88;;;12.45;78.45
39443;BME280;25147;52.142;9.960;2023-05-07T09:33:01;101135.91;;;12.64;78.28
39443;BME280;25147;52.142;9.960;2023-05-07T09:35:29;101122.84;;;12.58;77.99
39443;BME280;25147;52.142;9.960;2023-05-07T09:37:57;101127.19;;;12.61;77.99
39443;BME280;25147;52.142;9.960;2023-05-07T09:40:27;101133.28;;;12.64;78.08
39443;BME280;25147;52.142;9.960;2023-05-07T09:42:55;101139.44;;;12.62;78.03
39443;BME280;25147;52.142;9.960;2023-05-07T09:45:22;101134.97;;;12.70;77.99
39443;BME280;25147;52.142;9.960;2023-05-07T09:47:54;101125.41;;;12.64;77.64
39443;BME280;25147;52.142;9.960;2023-05-07T09:50:26;101068.81;;;12.39;77.71
39443;BME280;25147;52.142;9.960;2023-05-07T09:52:54;101132.28;;;12.73;78.03
39443;BME280;25147;52.142;9.960;2023-05-07T09:55:22;101086.22;;;12.48;78.53
39443;BME280;25147;52.142;9.960;2023-05-07T09:57:51;101034.84;;;12.27;77.98
39443;BME280;25147;52.142;9.960;2023-05-07T10:00:20;101133.88;;;12.83;77.74
39443;BME280;25147;52.142;9.960;2023-05-07T10:02:48;101137.28;;;12.90;77.87
39443;BME280;25147;52.142;9.960;2023-05-07T10:05:18;101098.03;;;12.78;77.48
39443;BME280;25147;52.142;9.960;2023-05-07T10:07:46;101132.69;;;13.06;77.58
39443;BME280;25147;52.142;9.960;2023-05-07T10:10:17;101136.25;;;13.02;76.40
39443;BME280;25147;52.142;9.960;2023-05-07T10:12:44;101129.47;;;12.87;76.35
39443;BME280;25147;52.142;9.960;2023-05-07T10:15:13;101125.09;;;12.86;76.46
39443;BME280;25147;52.142;9.960;2023-05-07T10:17:40;101145.75;;;13.11;76.72
39443;BME280;25147;52.142;9.960;2023-05-07T10:20:09;101147.41;;;13.19;76.61
39443;BME280;25147;52.142;9.960;2023-05-07T10:22:39;101144.69;;;13.24;76.03
39443;BME280;25147;52.142;9.960;2023-05-07T10:25:14;101147.13;;;13.38;75.73
39443;BME280;25147;52.142;9.960;2023-05-07T10:27:42;101115.72;;;13.27;75.38
39443;BME280;25147;52.142;9.960;2023-05-07T10:30:18;101120.09;;;13.30;74.98
39443;BME280;25147;52.142;9.960;2023-05-07T10:32:49;101149.47;;;13.55;75.22
39443;BME280;25147;52.142;9.960;2023-05-07T10:35:19;101158.09;;;13.63;74.98
39443;BME280;25147;52.142;9.960;2023-05-07T10:37:47;101150.19;;;13.64;75.18
39443;BME280;25147;52.142;9.960;2023-05-07T10:40:15;101126.56;;;13.61;74.71
39443;BME280;25147;52.142;9.960;2023-05-07T10:42:56;101146.63;;;13.67;74.27
39443;BME280;25147;52.142;9.960;2023-05-07T10:45:25;101094.72;;;13.24;74.25
39443;BME280;25147;52.142;9.960;2023-05-07T10:48:12;101130.22;;;13.53;75.61
39443;BME280;25147;52.142;9.960;2023-05-07T10:50:39;101131.03;;;13.56;74.82
39443;BME280;25147;52.142;9.960;2023-05-07T10:53:25;101153.56;;;13.73;75.38
39443;BME280;25147;52.142;9.960;2023-05-07T10:56:25;101150.44;;;14.00;73.41
39443;BME280;25147;52.142;9.960;2023-05-07T10:58:54;101158.06;;;14.14;73.34
39443;BME280;25147;52.142;9.960;2023-05-07T11:01:52;101151.81;;;14.20;72.99
39443;BME280;25147;52.142;9.960;2023-05-07T11:04:22;101166.66;;;14.24;73.12
39443;BME280;25147;52.142;9.960;2023-05-07T11:07:26;101141.19;;;14.24;73.21
39443;BME280;25147;52.142;9.960;2023-05-07T11:09:55;101152.09;;;14.51;70.84
39443;BME280;25147;52.142;9.960;2023-05-07T11:12:49;101153.72;;;14.58;71.26
39443;BME280;25147;52.142;9.960;2023-05-07T11:15:41;101166.88;;;14.60;69.22
39443;BME280;25147;52.142;9.960;2023-05-07T11:18:11;101162.69;;;14.47;70.07
39443;BME280;25147;52.142;9.960;2023-05-07T11:20:45;101153.31;;;14.33;70.25
39443;BME280;25147;52.142;9.960;2023-05-07T11:23:55;101146.19;;;14.38;70.22
39443;BME280;25147;52.142;9.960;2023-05-07T11:26:22;101156.47;;;14.51;70.73
39443;BME280;25147;52.142;9.960;2023-05-07T11:28:49;101150.19;;;14.59;70.64
39443;BME280;25147;52.142;9.960;2023-05-07T11:31:21;101112.84;;;14.37;69.91
39443;BME280;25147;52.142;9.960;2023-05-07T11:33:49;101159.91;;;14.57;69.50
39443;BME280;25147;52.142;9.960;2023-05-07T11:36:17;101144.31;;;14.45;69.81
39443;BME280;25147;52.142;9.960;2023-05-07T11:38:44;101144.09;;;14.54;70.00
39443;BME280;25147;52.142;9.960;2023-05-07T11:41:11;101154.97;;;14.82;69.54
39443;BME280;25147;52.142;9.960;2023-05-07T11:43:53;101139.03;;;14.87;69.89
39443;BME280;25147;52.142;9.960;2023-05-07T11:46:20;101158.56;;;15.17;69.16
39443;BME280;25147;52.142;9.960;2023-05-07T11:48:47;101154.63;;;15.35;68.03
39443;BME280;25147;52.142;9.960;2023-05-07T11:51:18;101098.84;;;15.15;66.20
39443;BME280;25147;52.142;9.960;2023-05-07T11:53:45;101112.84;;;15.17;66.66
39443;BME280;25147;52.142;9.960;2023-05-07T11:56:13;101138.03;;;15.30;65.36
39443;BME280;25147;52.142;9.960;2023-05-07T11:58:41;101153.84;;;15.30;65.97
39443;BME280;25147;52.142;9.960;2023-05-07T12:01:09;101155.75;;;15.25;65.17
39443;BME280;25147;52.142;9.960;2023-05-07T12:03:36;101148.25;;;15.07;65.81
39443;BME280;25147;52.142;9.960;2023-05-07T12:06:05;101141.28;;;15.04;66.45
39443;BME280;25147;52.142;9.960;2023-05-07T12:08:36;101157.91;;;15.08;66.07
39443;BME280;25147;52.142;9.960;2023-05-07T12:11:07;101147.63;;;14.95;65.85
39443;BME280;25147;52.142;9.960;2023-05-07T12:13:35;101138.84;;;14.96;66.33
39443;BME280;25147;52.142;9.960;2023-05-07T12:16:05;101163.81;;;15.19;66.05
39443;BME280;25147;52.142;9.960;2023-05-07T12:18:34;101161.06;;;15.23;66.11
39443;BME280;25147;52.142;9.960;2023-05-07T12:21:01;101152.88;;;15.34;66.06
39443;BME280;25147;52.142;9.960;2023-05-07T12:23:28;101166.56;;;15.50;65.12
39443;BME280;25147;52.142;9.960;2023-05-07T12:25:57;101163.25;;;15.42;65.22
39443;BME280;25147;52.142;9.960;2023-05-07T12:28:23;101154.78;;;15.29;64.53
39443;BME280;25147;52.142;9.960;2023-05-07T12:30:51;101173.13;;;15.34;65.01
39443;BME280;25147;52.142;9.960;2023-05-07T12:33:19;101194.47;;;15.24;64.95
39443;BME280;25147;52.142;9.960;2023-05-07T12:35:50;101182.13;;;15.25;64.48
39443;BME280;25147;52.142;9.960;2023-05-07T12:38:17;101176.91;;;15.22;65.01
39443;BME280;25147;52.142;9.960;2023-05-07T12:40:45;101185.75;;;15.21;64.89
39443;BME280;25147;52.142;9.960;2023-05-07T12:43:19;101169.00;;;15.22;65.60
39443;BME280;25147;52.142;9.960;2023-05-07T12:45:47;101168.53;;;15.42;65.45
39443;BME280;25147;52.142;9.960;2023-05-07T12:48:15;101080.41;;;15.13;64.36
39443;BME280;25147;52.142;9.960;2023-05-07T12:50:41;101158.28;;;15.65;64.34
39443;BME280;25147;52.142;9.960;2023-05-07T12:53:10;101159.88;;;15.71;64.68
39443;BME280;25147;52.142;9.960;2023-05-07T12:55:42;101145.69;;;15.77;63.64
39443;BME280;25147;52.142;9.960;2023-05-07T12:58:15;101155.38;;;15.76;63.80